Time;durP1;ratioP1;P1;durP2;ratioP2;P2;SDS_P1;SDS_P2;PMS_P1;PMS_P2;Temp;Humidity;BMP_temperature;BMP_pressure;BME280_temperature;BME280_humidity;BME280_pressure;Samples;Min_cycle;Max_cycle;Signal;HPM_P1;HPM_P2
2021/08/24 00:01:39;;;;;;;0.40;0.20;;;;;;;14.79;100.00;100991.88;5037626;28;20448;-79
2021/08/24 00:04:07;;;;;;;0.40;0.30;;;;;;;14.78;100.00;100993.66;5006150;28;20473;-79
2021/08/24 00:06:34;;;;;;;0.40;0.20;;;;;;;14.77;100.00;100991.91;5011512;28;20913;-79
2021/08/24 00:09:02;;;;;;;0.40;0.20;;;;;;;14.79;100.00;100994.53;5014257;28;20448;-79
2021/08/24 00:11:33;;;;;;;0.40;0.20;;;;;;;14.67;100.00;100995.00;5010909;28;20887;-79
2021/08/24 00:14:02;;;;;;;0.40;0.20;;;;;;;14.65;100.00;100988.78;5010579;28;20510;-80
2021/08/24 00:16:29;;;;;;;0.40;0.20;;;;;;;14.60;100.00;100988.97;5026646;28;20492;-79
2021/08/24 00:18:56;;;;;;;0.40;0.20;;;;;;;14.69;100.00;100991.31;5016228;28;20465;-79
2021/08/24 00:21:23;;;;;;;0.40;0.20;;;;;;;14.56;100.00;100994.47;5009168;28;20482;-79
2021/08/24 00:23:50;;;;;;;0.40;0.20;;;;;;;14.39;100.00;100993.19;5001987;28;20484;-79
2021/08/24 00:26:17;;;;;;;0.40;0.20;;;;;;;14.47;100.00;100991.16;5008531;28;20483;-78
2021/08/24 00:28:44;;;;;;;0.40;0.30;;;;;;;14.48;100.00;101000.06;5011299;28;20455;-79
2021/08/24 00:31:11;;;;;;;16.93;1.90;;;;;;;14.57;100.00;101001.56;5027981;28;20454;-79
2021/08/24 00:33:38;;;;;;;0.40;0.20;;;;;;;14.58;100.00;101011.34;5007614;28;20460;-79
2021/08/24 00:36:05;;;;;;;0.40;0.20;;;;;;;14.45;100.00;101001.03;5053813;28;20460;-79
2021/08/24 00:38:32;;;;;;;0.40;0.20;;;;;;;14.52;100.00;100999.91;5008293;28;20455;-79
2021/08/24 00:41:03;;;;;;;0.40;0.20;;;;;;;14.62;100.00;101008.50;5026353;28;20463;-80
2021/08/24 00:43:32;;;;;;;0.40;0.20;;;;;;;14.46;100.00;101010.81;5031774;28;20457;-80
2021/08/24 00:46:31;;;;;;;1.90;1.90;;;;;;;14.37;100.00;101002.19;5013983;28;20858;-79
2021/08/24 00:49:03;;;;;;;0.63;0.63;;;;;;;14.33;100.00;101009.44;5012088;28;20459;-79
2021/08/24 00:51:34;;;;;;;0.40;0.20;;;;;;;14.29;100.00;101001.56;5036544;28;20451;-80
2021/08/24 00:54:05;;;;;;;0.40;0.20;;;;;;;14.31;100.00;101011.28;5058339;28;20463;-80
2021/08/24 00:56:32;;;;;;;0.40;0.20;;;;;;;14.29;100.00;101007.78;5006141;28;20453;-79
2021/08/24 00:59:00;;;;;;;0.63;0.63;;;;;;;14.18;100.00;101005.47;5019894;28;20466;-79
2021/08/24 01:01:27;;;;;;;0.40;0.30;;;;;;;14.19;100.00;101014.34;5018713;28;20465;-80
2021/08/24 01:03:54;;;;;;;0.40;0.20;;;;;;;14.19;100.00;101006.34;5019610;28;20506;-79
2021/08/24 01:06:41;;;;;;;0.80;0.80;;;;;;;14.22;100.00;101016.91;5013485;28;20921;-79
2021/08/24 01:09:50;;;;;;;0.40;0.20;;;;;;;14.10;100.00;101018.19;5058874;28;20469;-80
2021/08/24 01:12:43;;;;;;;0.40;0.30;;;;;;;14.13;100.00;101006.53;4943844;29;20460;-79
2021/08/24 01:15:31;;;;;;;0.40;0.20;;;;;;;14.14;100.00;101013.63;5031240;28;20437;-80
2021/08/24 01:18:07;;;;;;;0.57;0.57;;;;;;;14.12;100.00;101020.84;5024405;28;20457;-79
2021/08/24 01:21:08;;;;;;;0.40;0.20;;;;;;;14.01;100.00;101006.94;5019235;28;20463;-79
2021/08/24 01:23:49;;;;;;;0.40;0.20;;;;;;;13.83;100.00;101017.22;5018935;28;20833;-79
2021/08/24 01:26:31;;;;;;;0.40;0.20;;;;;;;13.92;100.00;101021.44;5034047;28;20482;-79
2021/08/24 01:29:35;;;;;;;0.40;0.20;;;;;;;13.83;100.00;101024.38;5058457;28;20948;-80
2021/08/24 01:32:07;;;;;;;0.40;0.20;;;;;;;13.71;100.00;101022.97;5034770;28;20448;-80
2021/08/24 01:34:53;;;;;;;0.40;0.20;;;;;;;13.63;100.00;101020.50;5018759;28;20460;-79
2021/08/24 01:37:33;;;;;;;0.40;0.20;;;;;;;13.66;100.00;101022.22;5027789;28;20501;-80
2021/08/24 01:40:08;;;;;;;0.40;0.20;;;;;;;13.66;100.00;101027.56;5012943;28;20444;-79
2021/08/24 01:42:36;;;;;;;0.40;0.30;;;;;;;13.58;100.00;101022.47;5034870;28;20461;-81
2021/08/24 01:45:14;;;;;;;0.70;0.70;;;;;;;13.59;100.00;101029.56;5010543;28;20498;-79
2021/08/24 01:47:41;;;;;;;0.47;0.47;;;;;;;13.52;100.00;101030.63;5009706;28;20515;-78
2021/08/24 01:50:21;;;;;;;1.00;0.93;;;;;;;13.40;100.00;101030.97;5022466;28;20514;-79
2021/08/24 01:52:54;;;;;;;0.40;0.20;;;;;;;13.29;100.00;101022.38;5008495;28;20444;-78
2021/08/24 01:55:29;;;;;;;0.40;0.20;;;;;;;13.33;100.00;101013.38;5029380;28;21012;-78
2021/08/24 01:58:30;;;;;;;0.77;0.70;;;;;;;13.45;100.00;101022.84;5037001;28;20439;-79
2021/08/24 02:01:01;;;;;;;0.40;0.20;;;;;;;13.21;100.00;101030.63;5003764;28;20587;-79
2021/08/24 02:03:36;;;;;;;0.40;0.20;;;;;;;13.31;100.00;101037.47;5030856;28;20460;-79
2021/08/24 02:06:26;;;;;;;0.40;0.20;;;;;;;13.29;100.00;101038.41;5033478;28;20974;-79
2021/08/24 02:08:57;;;;;;;0.40;0.30;;;;;;;13.28;100.00;101037.53;5007095;28;20452;-79
2021/08/24 02:11:28;;;;;;;0.40;0.20;;;;;;;13.36;100.00;101033.78;5003283;28;20497;-79
2021/08/24 02:14:00;;;;;;;0.40;0.20;;;;;;;13.16;100.00;101028.97;5035618;28;20455;-79
2021/08/24 02:16:29;;;;;;;0.40;0.20;;;;;;;13.07;100.00;101026.53;5032299;28;20444;-79
2021/08/24 02:19:03;;;;;;;0.40;0.23;;;;;;;13.03;100.00;101026.63;5038882;28;20451;-79
2021/08/24 02:21:38;;;;;;;0.40;0.20;;;;;;;13.11;100.00;101037.09;5025412;28;20463;-79
2021/08/24 02:24:08;;;;;;;0.40;0.20;;;;;;;13.19;100.00;101035.13;5019992;28;20460;-80
2021/08/24 02:26:37;;;;;;;0.40;0.20;;;;;;;13.11;100.00;101037.09;5005403;28;21009;-79
2021/08/24 02:29:04;;;;;;;0.40;0.20;;;;;;;13.01;100.00;101027.56;5023462;28;20872;-80
2021/08/24 02:31:41;;;;;;;0.50;0.50;;;;;;;12.98;100.00;101033.00;5038702;28;20866;-79
2021/08/24 02:34:31;;;;;;;0.40;0.20;;;;;;;13.09;100.00;101030.91;5014202;28;20462;-80
2021/08/24 02:37:11;;;;;;;0.40;0.20;;;;;;;12.91;100.00;101031.41;5029937;28;20460;-79
2021/08/24 02:39:44;;;;;;;0.40;0.20;;;;;;;13.05;100.00;101030.13;5058586;28;20447;-80
2021/08/24 02:42:19;;;;;;;0.40;0.20;;;;;;;12.92;100.00;101027.84;5034905;28;20824;-78
2021/08/24 02:45:04;;;;;;;0.40;0.40;;;;;;;12.88;100.00;101027.00;5007235;28;20530;-79
2021/08/24 02:47:32;;;;;;;0.40;0.30;;;;;;;12.99;100.00;101034.75;5042698;28;20491;-79
2021/08/24 02:50:01;;;;;;;0.40;0.20;;;;;;;13.03;100.00;101036.44;5027076;28;20941;-80
2021/08/24 02:52:29;;;;;;;0.40;0.20;;;;;;;12.89;100.00;101026.13;5043385;28;20460;-80
2021/08/24 02:54:55;;;;;;;0.40;0.20;;;;;;;12.82;100.00;101034.31;5037656;28;20460;-80
2021/08/24 02:57:22;;;;;;;0.40;0.30;;;;;;;12.88;100.00;101027.00;5007338;28;20961;-79
2021/08/24 02:59:49;;;;;;;0.40;0.20;;;;;;;12.78;100.00;101032.66;5042074;28;20471;-79
2021/08/24 03:02:16;;;;;;;0.40;0.20;;;;;;;12.59;100.00;101029.56;5033792;28;20868;-79
2021/08/24 03:04:44;;;;;;;0.40;0.20;;;;;;;12.65;100.00;101040.09;5019396;28;20490;-79
2021/08/24 03:07:22;;;;;;;0.40;0.20;;;;;;;12.59;100.00;101033.09;5019372;28;20495;-79
2021/08/24 03:09:50;;;;;;;0.40;0.20;;;;;;;12.51;100.00;101031.56;5043882;28;20447;-79
2021/08/24 03:12:54;;;;;;;0.40;0.20;;;;;;;12.52;100.00;101041.31;5026004;28;20517;-78
2021/08/24 03:15:32;;;;;;;0.40;0.20;;;;;;;12.65;100.00;101034.75;5029969;28;20930;-79
2021/08/24 03:18:12;;;;;;;0.40;0.20;;;;;;;12.60;100.00;101044.63;5014988;28;20448;-80
2021/08/24 03:20:43;;;;;;;0.40;0.20;;;;;;;12.57;100.00;101053.59;5014055;28;20481;-79
2021/08/24 03:23:12;;;;;;;0.67;0.67;;;;;;;12.65;100.00;101054.28;5043284;28;20475;-79
2021/08/24 03:25:42;;;;;;;0.40;0.20;;;;;;;12.30;100.00;101038.25;5041050;28;20452;-79
2021/08/24 03:28:15;;;;;;;0.40;0.30;;;;;;;12.36;100.00;101039.00;5035672;28;20487;-78
2021/08/24 03:30:42;;;;;;;0.50;0.30;;;;;;;12.35;100.00;101042.59;5024013;28;20456;-79
2021/08/24 03:33:11;;;;;;;0.40;0.40;;;;;;;12.58;100.00;101050.00;5043095;28;20455;-78
2021/08/24 03:35:39;;;;;;;0.50;0.40;;;;;;;12.35;100.00;101044.38;5025307;28;20521;-78
2021/08/24 03:38:06;;;;;;;0.40;0.30;;;;;;;12.34;100.00;101042.63;5030672;28;20471;-78
2021/08/24 03:40:34;;;;;;;0.40;0.20;;;;;;;12.25;100.00;101034.84;5021653;28;20455;-79
2021/08/24 03:43:01;;;;;;;0.60;0.60;;;;;;;12.18;100.00;101039.41;5035266;28;20523;-79
2021/08/24 03:45:28;;;;;;;0.40;0.20;;;;;;;12.14;100.00;101043.94;5021358;28;20456;-78
2021/08/24 03:47:55;;;;;;;0.40;0.20;;;;;;;12.14;100.00;101051.94;5019024;28;20526;-78
2021/08/24 03:50:23;;;;;;;0.40;0.20;;;;;;;12.20;100.00;101047.38;5007324;28;20562;-79
2021/08/24 03:52:50;;;;;;;0.40;0.20;;;;;;;12.16;100.00;101049.25;5022646;28;20849;-78
2021/08/24 03:55:18;;;;;;;0.40;0.20;;;;;;;12.12;100.00;101053.78;5051378;28;20486;-78
2021/08/24 03:57:45;;;;;;;8.33;1.80;;;;;;;12.04;100.00;101062.84;5003940;28;20654;-78
2021/08/24 04:00:13;;;;;;;0.40;0.20;;;;;;;11.84;100.00;101064.16;5025385;28;20478;-78
2021/08/24 04:02:40;;;;;;;0.40;0.30;;;;;;;11.80;100.00;101058.94;5004504;28;20466;-78
2021/08/24 04:05:09;;;;;;;0.40;0.20;;;;;;;11.92;100.00;101063.09;5036109;28;20440;-78
2021/08/24 04:07:36;;;;;;;0.37;0.20;;;;;;;11.97;100.00;101062.13;5004973;28;20537;-79
2021/08/24 04:10:06;;;;;;;0.40;0.20;;;;;;;11.92;100.00;101063.09;5009387;28;20560;-78
2021/08/24 04:12:33;;;;;;;0.40;0.20;;;;;;;11.94;100.00;101056.00;5014581;28;20518;-79
2021/08/24 04:15:00;;;;;;;0.40;0.20;;;;;;;12.02;100.00;101072.66;5013401;28;20515;-79
2021/08/24 04:17:27;;;;;;;0.40;0.20;;;;;;;11.95;100.00;101071.94;5053868;28;20509;-79
2021/08/24 04:19:53;;;;;;;0.40;0.20;;;;;;;11.83;100.00;101078.41;5054145;28;20486;-78
2021/08/24 04:22:22;;;;;;;0.40;0.20;;;;;;;11.81;100.00;101077.56;5052406;28;20940;-78
2021/08/24 04:24:50;;;;;;;0.40;0.20;;;;;;;11.78;100.00;101072.22;5039281;28;20530;-80
2021/08/24 04:27:17;;;;;;;0.40;0.20;;;;;;;11.75;100.00;101074.09;5010257;28;20491;-80
2021/08/24 04:29:44;;;;;;;0.40;0.20;;;;;;;11.75;100.00;101082.97;5037597;28;20452;-79
2021/08/24 04:32:15;;;;;;;0.40;0.20;;;;;;;11.64;100.00;101079.63;5045968;28;20441;-79
2021/08/24 04:34:42;;;;;;;0.40;0.20;;;;;;;11.67;100.00;101086.72;5017107;28;20483;-79
2021/08/24 04:37:09;;;;;;;0.40;0.20;;;;;;;11.81;100.00;101079.34;5036606;28;20455;-79
2021/08/24 04:39:35;;;;;;;0.40;0.20;;;;;;;11.80;100.00;101083.78;5023134;28;20490;-79
2021/08/24 04:42:03;;;;;;;0.30;0.20;;;;;;;11.74;100.00;101088.31;5027333;28;20475;-79
2021/08/24 04:44:29;;;;;;;0.40;0.20;;;;;;;11.69;100.00;101087.56;5023916;28;20468;-79
2021/08/24 04:46:56;;;;;;;0.40;0.20;;;;;;;11.85;100.00;101091.69;5011675;28;20472;-79
2021/08/24 04:49:23;;;;;;;0.40;0.20;;;;;;;11.75;100.00;101082.97;5011037;28;20448;-79
2021/08/24 04:51:50;;;;;;;0.40;0.20;;;;;;;11.74;100.00;101097.19;5033831;28;20483;-79
2021/08/24 04:54:17;;;;;;;0.40;0.20;;;;;;;11.60;100.00;101096.59;5017545;28;20533;-79
2021/08/24 04:56:44;;;;;;;0.40;0.20;;;;;;;11.60;100.00;101101.03;5033817;28;20458;-79
2021/08/24 04:59:11;;;;;;;0.40;0.20;;;;;;;11.57;100.00;101091.34;5024159;28;20468;-79
2021/08/24 05:01:38;;;;;;;0.40;0.20;;;;;;;11.62;100.00;101094.75;5016288;28;20440;-79
2021/08/24 05:04:05;;;;;;;0.37;0.20;;;;;;;11.64;100.00;101095.59;5016963;28;20472;-79
2021/08/24 05:06:33;;;;;;;0.40;0.20;;;;;;;11.93;100.00;101092.41;5011844;28;20493;-79
2021/08/24 05:09:00;;;;;;;0.40;0.20;;;;;;;11.89;100.00;101104.03;5010299;28;20493;-79
2021/08/24 05:11:27;;;;;;;0.40;0.20;;;;;;;11.93;100.00;101105.72;5014099;28;20538;-79
2021/08/24 05:13:54;;;;;;;0.30;0.20;;;;;;;12.03;100.00;101109.06;5034142;28;20471;-79
2021/08/24 05:16:21;;;;;;;0.30;0.20;;;;;;;12.20;100.00;101108.69;5012078;28;20510;-79
2021/08/24 05:18:48;;;;;;;0.40;0.20;;;;;;;12.46;100.00;101100.97;5053017;28;20451;-79
2021/08/24 05:21:15;;;;;;;0.40;0.37;;;;;;;13.06;100.00;101111.09;5011585;28;20486;-79
2021/08/24 05:23:42;;;;;;;0.40;0.20;;;;;;;13.30;100.00;101109.59;5048321;28;20477;-78
2021/08/24 05:26:14;;;;;;;0.40;0.30;;;;;;;13.78;100.00;101107.38;5009696;28;20509;-78
2021/08/24 05:28:42;;;;;;;0.40;0.20;;;;;;;14.10;100.00;101109.09;5015458;28;20567;-78
2021/08/24 05:31:09;;;;;;;0.40;0.20;;;;;;;14.35;100.00;101117.25;5031946;28;20446;-78
2021/08/24 05:33:41;;;;;;;0.40;0.30;;;;;;;14.66;100.00;101106.47;5009597;28;20499;-78
2021/08/24 05:36:11;;;;;;;0.40;0.20;;;;;;;14.83;100.00;101116.66;5015761;28;21337;-78
2021/08/24 05:38:40;;;;;;;0.40;0.20;;;;;;;15.27;99.94;101127.66;5007779;28;20811;-78
2021/08/24 05:41:08;;;;;;;0.40;0.20;;;;;;;15.05;100.00;101116.81;5007529;28;20495;-78
2021/08/24 05:43:35;;;;;;;0.40;0.20;;;;;;;15.31;100.00;101122.13;5012981;28;20476;-78
2021/08/24 05:46:05;;;;;;;0.40;0.20;;;;;;;15.91;98.65;101126.28;5013200;28;20455;-78
2021/08/24 05:48:33;;;;;;;0.40;0.20;;;;;;;16.16;97.72;101125.34;5007459;28;20471;-79
2021/08/24 05:51:00;;;;;;;0.87;0.87;;;;;;;15.89;98.31;101128.13;5007493;28;20440;-78
2021/08/24 05:53:27;;;;;;;0.40;0.30;;;;;;;16.00;97.87;101136.66;5040214;28;20459;-79
2021/08/24 05:55:54;;;;;;;0.40;0.20;;;;;;;15.95;98.29;101135.94;5043712;28;20460;-79
2021/08/24 05:58:21;;;;;;;0.40;0.20;;;;;;;15.88;99.27;101125.50;5058352;28;20448;-78
2021/08/24 06:00:48;;;;;;;0.40;0.20;;;;;;;15.93;99.72;101126.22;5026133;28;20867;-79
2021/08/24 06:03:16;;;;;;;0.40;0.30;;;;;;;15.97;99.47;101130.53;5058999;28;20470;-79
2021/08/24 06:05:43;;;;;;;0.40;0.20;;;;;;;16.00;100.00;101130.41;5024064;28;20484;-79
2021/08/24 06:08:10;;;;;;;0.40;0.20;;;;;;;15.87;99.88;101123.75;5019049;28;20491;-79
2021/08/24 06:10:39;;;;;;;0.40;0.20;;;;;;;16.23;99.30;101125.06;5043390;28;20452;-79
2021/08/24 06:13:07;;;;;;;0.40;0.20;;;;;;;16.26;96.02;101132.09;5017412;28;20576;-79
2021/08/24 06:15:35;;;;;;;0.40;0.20;;;;;;;16.49;95.96;101128.53;5022982;28;20517;-79
2021/08/24 06:18:03;;;;;;;0.40;0.20;;;;;;;16.46;95.08;101131.34;5031980;28;20444;-80
2021/08/24 06:20:30;;;;;;;0.40;0.20;;;;;;;16.39;95.52;101130.69;5033025;28;20523;-80
2021/08/24 06:22:58;;;;;;;0.70;0.70;;;;;;;16.45;93.96;101130.47;5032824;28;20459;-80
2021/08/24 06:25:24;;;;;;;0.40;0.20;;;;;;;16.67;93.29;101133.19;5065144;28;20436;-80
2021/08/24 06:27:52;;;;;;;0.40;0.20;;;;;;;16.79;94.28;101140.75;5063216;28;20494;-79
2021/08/24 06:30:20;;;;;;;0.60;0.60;;;;;;;17.04;93.39;101137.94;5029363;28;20502;-79
2021/08/24 06:32:54;;;;;;;0.40;0.30;;;;;;;16.98;91.93;101142.69;5049466;28;20456;-80
2021/08/24 06:35:22;;;;;;;0.40;0.20;;;;;;;17.04;92.29;101126.31;5032544;28;20945;-80
2021/08/24 06:37:53;;;;;;;0.40;0.20;;;;;;;17.27;90.14;101134.28;5032597;28;20420;-80
2021/08/24 06:40:21;;;;;;;0.40;0.20;;;;;;;17.17;89.03;101130.25;5026066;28;20525;-80
2021/08/24 06:42:51;;;;;;;15.73;1.13;;;;;;;17.44;89.93;101136.25;5025349;28;20536;-80
2021/08/24 06:45:30;;;;;;;0.50;0.47;;;;;;;17.14;90.59;101136.63;5031656;28;20448;-79
2021/08/24 06:47:57;;;;;;;0.40;0.27;;;;;;;17.41;89.94;101139.06;5049277;28;20518;-79
2021/08/24 06:50:27;;;;;;;0.40;0.20;;;;;;;17.54;89.61;101142.94;5031850;28;20475;-80
2021/08/24 06:52:55;;;;;;;0.40;0.20;;;;;;;17.39;90.26;101141.81;5030927;28;20432;-79
2021/08/24 06:55:25;;;;;;;0.60;0.53;;;;;;;17.37;88.88;101132.94;5031625;28;20452;-79
2021/08/24 06:57:52;;;;;;;0.40;0.20;;;;;;;17.11;89.58;101135.84;5048970;28;20486;-79
2021/08/24 07:00:23;;;;;;;0.40;0.20;;;;;;;17.35;89.05;101129.44;5020791;28;20475;-79
2021/08/24 07:02:52;;;;;;;0.40;0.20;;;;;;;17.22;90.20;101127.34;5030200;28;20459;-79
2021/08/24 07:05:24;;;;;;;0.40;0.30;;;;;;;17.20;89.02;101127.41;5031182;28;20471;-79
2021/08/24 07:07:52;;;;;;;0.40;0.20;;;;;;;17.01;90.38;101137.19;5034296;28;20480;-79
2021/08/24 07:10:20;;;;;;;0.40;0.20;;;;;;;17.07;88.08;101134.25;5016498;28;20440;-79
2021/08/24 07:12:47;;;;;;;0.40;0.30;;;;;;;17.21;89.07;101131.84;5035109;28;20455;-79
2021/08/24 07:15:19;;;;;;;0.40;0.20;;;;;;;17.55;88.03;101130.41;5036332;28;20479;-79
2021/08/24 07:17:50;;;;;;;0.40;0.20;;;;;;;17.60;88.38;101136.44;5011209;28;20417;-79
2021/08/24 07:20:21;;;;;;;0.40;0.20;;;;;;;17.48;88.67;101136.03;5040576;28;20497;-79
2021/08/24 07:22:48;;;;;;;0.40;0.20;;;;;;;17.53;87.94;101129.56;5050097;28;20424;-79
2021/08/24 07:25:19;;;;;;;0.40;0.20;;;;;;;17.64;86.91;101132.69;5048219;28;20502;-81
2021/08/24 07:27:46;;;;;;;0.40;0.20;;;;;;;17.71;87.95;101134.19;5020216;28;20475;-81
2021/08/24 07:30:14;;;;;;;0.40;0.20;;;;;;;17.81;85.71;101121.19;5046638;28;20524;-80
2021/08/24 07:32:42;;;;;;;3.70;0.70;;;;;;;17.90;87.50;101131.53;5030544;28;20925;-81
2021/08/24 07:35:12;;;;;;;0.40;0.20;;;;;;;18.06;83.48;101133.44;5030442;28;20458;-80
2021/08/24 07:37:39;;;;;;;0.60;0.60;;;;;;;18.20;84.77;101126.56;5030783;28;20436;-80
2021/08/24 07:40:08;;;;;;;0.40;0.20;;;;;;;18.28;83.18;101129.78;5029504;28;20440;-80
2021/08/24 07:42:36;;;;;;;0.40;0.20;;;;;;;17.92;82.44;101127.84;5016826;28;20507;-80
2021/08/24 07:45:04;;;;;;;0.40;0.30;;;;;;;18.10;84.54;101130.66;5026560;28;20467;-79
2021/08/24 07:47:31;;;;;;;0.40;0.20;;;;;;;18.14;86.42;101113.41;5029100;28;20474;-80
2021/08/24 07:49:58;;;;;;;0.40;0.20;;;;;;;18.31;85.44;101119.72;5046560;28;20444;-80
2021/08/24 07:52:25;;;;;;;0.40;0.20;;;;;;;18.23;85.08;101126.44;5028320;28;20451;-80
2021/08/24 07:54:52;;;;;;;0.40;0.20;;;;;;;18.12;84.54;101113.47;5028110;28;20483;-80
2021/08/24 07:57:19;;;;;;;0.40;0.20;;;;;;;18.54;83.89;101129.41;5051458;28;20439;-80
2021/08/24 07:59:46;;;;;;;0.40;0.20;;;;;;;18.45;81.22;101129.84;5025421;28;20488;-80
2021/08/24 08:02:15;;;;;;;0.40;0.20;;;;;;;18.17;78.33;101137.47;5019939;28;20451;-80
2021/08/24 08:04:43;;;;;;;0.40;0.20;;;;;;;18.29;80.60;101135.09;5058039;28;20503;-80
2021/08/24 08:07:10;;;;;;;0.40;0.20;;;;;;;18.31;78.27;101141.25;5043907;28;20439;-80
2021/08/24 08:09:37;;;;;;;0.40;0.20;;;;;;;18.17;77.56;101132.09;5014407;28;20561;-80
2021/08/24 08:12:04;;;;;;;0.40;0.20;;;;;;;18.13;80.37;101136.75;5030871;28;20536;-81
2021/08/24 08:14:32;;;;;;;0.40;0.20;;;;;;;18.06;79.83;101146.03;5025707;28;20472;-80
2021/08/24 08:16:59;;;;;;;1.43;1.33;;;;;;;18.34;81.41;101140.25;5018821;28;20494;-81
2021/08/24 08:19:26;;;;;;;0.40;0.27;;;;;;;18.25;79.50;101135.31;5029410;28;20466;-81
2021/08/24 08:21:53;;;;;;;0.40;0.20;;;;;;;18.64;80.62;101137.97;5023453;28;20442;-81
2021/08/24 08:24:20;;;;;;;0.57;0.57;;;;;;;18.36;80.76;101127.56;5055863;28;20483;-80
2021/08/24 08:26:47;;;;;;;0.40;0.20;;;;;;;18.37;78.76;101132.06;5040505;28;20467;-81
2021/08/24 08:29:14;;;;;;;0.40;0.20;;;;;;;18.46;79.55;101136.97;5022627;28;20483;-80
2021/08/24 08:31:45;;;;;;;0.40;0.20;;;;;;;18.41;79.14;101141.72;5023253;28;20448;-80
2021/08/24 08:34:13;;;;;;;0.40;0.20;;;;;;;18.34;79.95;101124.97;5012924;28;20456;-80
2021/08/24 08:36:40;;;;;;;0.40;0.20;;;;;;;18.49;81.46;101133.25;5016797;28;20447;-80
2021/08/24 08:39:07;;;;;;;0.40;0.20;;;;;;;18.87;80.39;101117.97;5011907;28;20441;-80
2021/08/24 08:42:03;;;;;;;0.40;0.27;;;;;;;19.15;77.31;101133.63;5034976;28;20853;-80
2021/08/24 08:45:04;;;;;;;0.40;0.20;;;;;;;19.00;76.63;101131.69;5031590;28;20472;-80
2021/08/24 08:47:56;;;;;;;0.40;0.20;;;;;;;19.09;77.16;101118.66;5010266;28;20912;-80
2021/08/24 08:50:51;;;;;;;0.40;0.20;;;;;;;19.21;76.69;101122.53;5010606;28;20436;-80
2021/08/24 08:53:37;;;;;;;0.40;0.20;;;;;;;19.20;76.85;101113.59;5008725;28;20480;-80
2021/08/24 08:56:31;;;;;;;0.40;0.20;;;;;;;19.30;77.72;101131.97;5007637;28;20453;-80
2021/08/24 08:59:09;;;;;;;0.40;0.20;;;;;;;19.37;71.37;101119.94;5027353;28;20440;-80
2021/08/24 09:02:14;;;;;;;0.70;0.70;;;;;;;18.97;70.57;101132.72;5008880;28;20452;-80
2021/08/24 09:04:44;;;;;;;0.40;0.20;;;;;;;18.86;70.68;101129.69;5007093;28;20457;-80
2021/08/24 09:07:41;;;;;;;0.50;0.40;;;;;;;19.04;69.47;101120.69;5038515;28;20522;-80
2021/08/24 09:10:32;;;;;;;0.40;0.20;;;;;;;19.32;71.11;101124.66;5022397;28;20908;-81
2021/08/24 09:13:05;;;;;;;0.40;0.30;;;;;;;19.07;72.18;101128.63;5012323;28;20447;-80
2021/08/24 09:15:43;;;;;;;0.80;0.80;;;;;;;19.13;71.91;101112.13;5041559;28;20825;-80
2021/08/24 09:18:22;;;;;;;0.40;0.20;;;;;;;18.84;72.78;101123.50;5005586;28;20897;-80
2021/08/24 09:21:11;;;;;;;2.10;2.00;;;;;;;19.21;70.13;101128.81;5040840;28;20443;-80
2021/08/24 09:23:37;;;;;;;0.40;0.30;;;;;;;19.17;70.71;101121.81;5042874;28;20496;-80
2021/08/24 09:27:00;;;;;;;0.40;0.30;;;;;;;19.19;71.19;101114.53;5017327;28;20502;-80
2021/08/24 09:29:53;;;;;;;0.40;0.20;;;;;;;19.44;72.13;101124.03;5000128;28;20491;-80
2021/08/24 09:32:24;;;;;;;0.40;0.30;;;;;;;19.49;71.01;101124.69;5008290;28;20513;-80
2021/08/24 09:34:59;;;;;;;0.40;0.20;;;;;;;19.11;73.37;101132.91;5010746;28;20474;-80
2021/08/24 09:37:27;;;;;;;0.40;0.20;;;;;;;19.23;72.21;101126.03;5024398;28;20455;-80
2021/08/24 09:40:02;;;;;;;0.40;0.20;;;;;;;19.43;72.19;101135.78;5028634;28;20923;-79
2021/08/24 09:42:43;;;;;;;0.40;0.20;;;;;;;19.76;72.27;101135.88;5013915;28;20438;-80
2021/08/24 09:45:19;;;;;;;0.40;0.20;;;;;;;19.68;72.67;101125.50;5018117;28;20433;-80
2021/08/24 09:48:08;;;;;;;0.40;0.20;;;;;;;19.52;72.89;101133.47;5018944;28;20497;-80
2021/08/24 09:50:39;;;;;;;0.40;0.40;;;;;;;19.43;73.29;101128.56;5014653;28;20507;-80
2021/08/24 09:53:13;;;;;;;2.20;0.50;;;;;;;19.47;71.91;101137.38;5030795;28;20472;-80
2021/08/24 09:55:49;;;;;;;0.40;0.30;;;;;;;19.75;71.50;101117.97;5034542;28;20418;-80
2021/08/24 09:58:49;;;;;;;0.40;0.30;;;;;;;19.88;71.31;101119.03;5024201;28;20435;-80
2021/08/24 10:01:17;;;;;;;0.40;0.20;;;;;;;20.10;71.05;101121.44;4988592;28;20518;-80
2021/08/24 10:04:03;;;;;;;0.40;0.20;;;;;;;19.73;69.22;101115.31;5024481;28;20483;-80
2021/08/24 10:06:38;;;;;;;0.40;0.20;;;;;;;19.77;71.45;101122.31;5033848;28;20544;-80
2021/08/24 10:09:14;;;;;;;0.40;0.20;;;;;;;20.12;71.77;101109.59;5017890;28;20458;-80
2021/08/24 10:11:41;;;;;;;0.40;0.20;;;;;;;20.30;71.40;101110.41;5014801;28;20447;-80
2021/08/24 10:14:26;;;;;;;0.40;0.20;;;;;;;20.27;71.42;101110.56;5020569;28;20447;-80
2021/08/24 10:16:57;;;;;;;0.40;0.20;;;;;;;20.37;71.05;101111.78;5037000;28;20448;-80
2021/08/24 10:19:24;;;;;;;0.60;0.60;;;;;;;20.23;70.70;101118.94;5044394;28;20440;-80
2021/08/24 10:21:56;;;;;;;0.40;0.20;;;;;;;20.09;71.00;101114.28;5012276;28;20506;-80
2021/08/24 10:24:32;;;;;;;0.40;0.20;;;;;;;20.54;71.14;101102.75;5017433;28;20896;-80
2021/08/24 10:27:07;;;;;;;0.40;0.30;;;;;;;20.76;71.92;101105.13;5019386;28;20445;-80
2021/08/24 10:29:39;;;;;;;0.40;0.20;;;;;;;20.47;71.37;101101.38;5022413;28;20549;-80
2021/08/24 10:32:10;;;;;;;0.40;0.30;;;;;;;20.62;72.06;101100.50;5035006;28;20419;-80
2021/08/24 10:34:50;;;;;;;0.40;0.20;;;;;;;20.68;71.49;101089.34;5021184;28;20952;-80
2021/08/24 10:37:26;;;;;;;0.40;0.20;;;;;;;20.39;71.58;101101.78;5012951;28;20448;-80
2021/08/24 10:40:13;;;;;;;0.40;0.20;;;;;;;20.30;72.05;101098.75;5021919;28;20447;-80
2021/08/24 10:42:59;;;;;;;3.13;0.73;;;;;;;20.85;72.15;101101.91;5020429;28;20509;-80
2021/08/24 10:45:35;;;;;;;0.40;0.20;;;;;;;20.46;72.42;101096.06;5021175;28;20467;-80
2021/08/24 10:48:07;;;;;;;0.70;0.70;;;;;;;20.34;73.07;101103.00;5023103;28;20448;-80
2021/08/24 10:50:41;;;;;;;0.40;0.20;;;;;;;20.55;73.33;101091.00;5019823;28;20526;-80
2021/08/24 10:53:32;;;;;;;0.70;0.70;;;;;;;20.83;73.76;101097.50;5015113;28;20456;-80
2021/08/24 10:56:20;;;;;;;1.97;1.40;;;;;;;20.74;74.15;101087.25;5060487;28;20479;-80
2021/08/24 10:59:12;;;;;;;0.50;0.40;;;;;;;20.93;73.14;101086.06;5009516;28;20448;-80
2021/08/24 11:01:57;;;;;;;2.40;0.50;;;;;;;21.46;73.31;101092.84;5037830;28;20459;-80
2021/08/24 11:04:44;;;;;;;0.40;0.20;;;;;;;20.97;74.30;101079.56;5016250;28;20464;-80
2021/08/24 11:07:21;;;;;;;0.40;0.30;;;;;;;21.30;74.52;101081.22;5015056;28;20469;-80
2021/08/24 11:09:55;;;;;;;0.40;0.30;;;;;;;21.31;74.93;101072.13;5027217;28;20522;-80
2021/08/24 11:12:47;;;;;;;3.70;3.50;;;;;;;20.93;74.27;101086.06;5025298;28;20462;-80
2021/08/24 11:15:33;;;;;;;1.27;0.60;;;;;;;20.98;75.21;101085.81;5029491;28;20952;-80
2021/08/24 11:18:03;;;;;;;0.40;0.23;;;;;;;20.63;74.65;101080.63;5062168;28;20444;-80
2021/08/24 11:20:42;;;;;;;0.40;0.20;;;;;;;21.26;76.02;101088.66;5033777;28;20827;-80
2021/08/24 11:23:34;;;;;;;0.40;0.20;;;;;;;21.32;75.49;101089.25;5035725;28;20438;-80
2021/08/24 11:26:07;;;;;;;0.40;0.30;;;;;;;21.17;73.88;101089.16;5025726;28;20464;-80
2021/08/24 11:28:54;;;;;;;0.40;0.20;;;;;;;21.13;74.04;101082.22;5020880;28;20929;-80
2021/08/24 11:31:33;;;;;;;0.40;0.20;;;;;;;21.27;76.09;101087.69;5049333;28;20451;-79
2021/08/24 11:34:19;;;;;;;0.40;0.20;;;;;;;21.04;74.22;101092.69;5015422;28;20535;-80
2021/08/24 11:36:53;;;;;;;0.40;0.30;;;;;;;21.24;74.40;101085.16;5032525;28;20456;-80
2021/08/24 11:39:55;;;;;;;0.40;0.20;;;;;;;21.25;74.95;101088.75;5035943;28;20513;-80
2021/08/24 11:42:44;;;;;;;0.40;0.20;;;;;;;21.00;75.33;101081.19;5016941;28;20495;-80
2021/08/24 11:45:23;;;;;;;0.40;0.40;;;;;;;21.45;73.94;101104.63;5013741;28;20426;-80
2021/08/24 11:48:13;;;;;;;0.40;0.23;;;;;;;21.75;74.01;101096.47;5032053;28;20464;-80
2021/08/24 11:50:55;;;;;;;1.27;1.27;;;;;;;21.94;73.60;101090.78;5033633;28;20547;-80